sensor_id;sensor_type;location;lat;lon;timestamp;temperature;humidity
68648;SHT31;55632;51.962;16.116;2022-09-14T00:01:47;15.12;90.16
68648;SHT31;55632;51.962;16.116;2022-09-14T00:06:48;15.11;90.20
68648;SHT31;55632;51.962;16.116;2022-09-14T00:11:50;15.14;90.17
68648;SHT31;55632;51.962;16.116;2022-09-14T00:16:51;15.12;90.19
68648;SHT31;55632;51.962;16.116;2022-09-14T00:21:56;15.14;90.29
68648;SHT31;55632;51.962;16.116;2022-09-14T00:26:57;15.11;90.32
68648;SHT31;55632;51.962;16.116;2022-09-14T00:31:58;15.15;90.38
68648;SHT31;55632;51.962;16.116;2022-09-14T00:36:59;15.14;90.44
68648;SHT31;55632;51.962;16.116;2022-09-14T00:42:00;15.15;90.51
68648;SHT31;55632;51.962;16.116;2022-09-14T00:47:01;15.14;90.53
68648;SHT31;55632;51.962;16.116;2022-09-14T00:57:16;15.08;90.56
68648;SHT31;55632;51.962;16.116;2022-09-14T01:02:19;15.10;90.57
68648;SHT31;55632;51.962;16.116;2022-09-14T01:18:18;14.96;90.46
68648;SHT31;55632;51.962;16.116;2022-09-14T01:39:29;14.69;90.53
68648;SHT31;55632;51.962;16.116;2022-09-14T01:44:36;14.61;90.54
68648;SHT31;55632;51.962;16.116;2022-09-14T01:49:42;14.59;90.65
68648;SHT31;55632;51.962;16.116;2022-09-14T01:54:56;14.56;90.67
68648;SHT31;55632;51.962;16.116;2022-09-14T02:00:03;14.53;90.85
68648;SHT31;55632;51.962;16.116;2022-09-14T02:05:28;14.52;90.83
68648;SHT31;55632;51.962;16.116;2022-09-14T02:10:30;14.48;90.93
68648;SHT31;55632;51.962;16.116;2022-09-14T02:15:34;14.44;90.97
68648;SHT31;55632;51.962;16.116;2022-09-14T02:25:44;14.37;90.99
68648;SHT31;55632;51.962;16.116;2022-09-14T02:35:54;14.31;91.13
68648;SHT31;55632;51.962;16.116;2022-09-14T02:41:08;14.25;91.10
68648;SHT31;55632;51.962;16.116;2022-09-14T02:51:32;14.16;91.16
68648;SHT31;55632;51.962;16.116;2022-09-14T02:56:35;14.13;91.25
68648;SHT31;55632;51.962;16.116;2022-09-14T03:01:36;14.10;91.32
68648;SHT31;55632;51.962;16.116;2022-09-14T03:06:37;14.07;91.35
68648;SHT31;55632;51.962;16.116;2022-09-14T03:11:38;14.06;91.41
68648;SHT31;55632;51.962;16.116;2022-09-14T03:16:39;14.09;91.43
68648;SHT31;55632;51.962;16.116;2022-09-14T03:21:39;14.04;91.50
68648;SHT31;55632;51.962;16.116;2022-09-14T03:26:40;14.01;91.50
68648;SHT31;55632;51.962;16.116;2022-09-14T03:31:41;14.00;91.52
68648;SHT31;55632;51.962;16.116;2022-09-14T03:36:42;13.97;91.52
68648;SHT31;55632;51.962;16.116;2022-09-14T03:41:43;13.94;91.54
68648;SHT31;55632;51.962;16.116;2022-09-14T03:46:44;13.91;91.49
68648;SHT31;55632;51.962;16.116;2022-09-14T03:51:44;13.90;91.48
68648;SHT31;55632;51.962;16.116;2022-09-14T03:56:45;13.86;91.52
68648;SHT31;55632;51.962;16.116;2022-09-14T04:01:46;13.86;91.56
68648;SHT31;55632;51.962;16.116;2022-09-14T04:06:47;13.83;91.56
68648;SHT31;55632;51.962;16.116;2022-09-14T04:11:49;13.82;91.52
68648;SHT31;55632;51.962;16.116;2022-09-14T04:16:49;13.80;91.51
68648;SHT31;55632;51.962;16.116;2022-09-14T04:21:50;13.79;91.53
68648;SHT31;55632;51.962;16.116;2022-09-14T04:26:51;13.77;91.46
68648;SHT31;55632;51.962;16.116;2022-09-14T04:31:52;13.75;91.48
68648;SHT31;55632;51.962;16.116;2022-09-14T04:36:52;13.75;91.45
68648;SHT31;55632;51.962;16.116;2022-09-14T04:41:53;13.70;91.42
68648;SHT31;55632;51.962;16.116;2022-09-14T04:46:54;13.70;91.40
68648;SHT31;55632;51.962;16.116;2022-09-14T04:51:55;13.68;91.29
68648;SHT31;55632;51.962;16.116;2022-09-14T04:56:56;13.68;91.27
68648;SHT31;55632;51.962;16.116;2022-09-14T05:01:57;13.68;91.35
68648;SHT31;55632;51.962;16.116;2022-09-14T05:06:57;13.70;91.34
68648;SHT31;55632;51.962;16.116;2022-09-14T05:11:58;13.72;91.30
68648;SHT31;55632;51.962;16.116;2022-09-14T05:16:59;13.77;91.18
68648;SHT31;55632;51.962;16.116;2022-09-14T05:22:02;13.87;91.27
68648;SHT31;55632;51.962;16.116;2022-09-14T05:27:03;14.09;91.40
68648;SHT31;55632;51.962;16.116;2022-09-14T05:32:04;14.28;91.10
68648;SHT31;55632;51.962;16.116;2022-09-14T05:37:04;14.46;90.72
68648;SHT31;55632;51.962;16.116;2022-09-14T05:42:05;14.62;90.58
68648;SHT31;55632;51.962;16.116;2022-09-14T05:47:06;14.79;90.32
68648;SHT31;55632;51.962;16.116;2022-09-14T05:52:06;14.96;89.93
68648;SHT31;55632;51.962;16.116;2022-09-14T05:57:07;15.04;89.66
68648;SHT31;55632;51.962;16.116;2022-09-14T06:02:09;15.15;89.39
68648;SHT31;55632;51.962;16.116;2022-09-14T06:07:10;15.25;88.96
68648;SHT31;55632;51.962;16.116;2022-09-14T06:12:10;15.30;88.80
68648;SHT31;55632;51.962;16.116;2022-09-14T06:17:13;15.36;88.47
68648;SHT31;55632;51.962;16.116;2022-09-14T06:22:14;15.42;88.21
68648;SHT31;55632;51.962;16.116;2022-09-14T06:27:15;15.53;87.93
68648;SHT31;55632;51.962;16.116;2022-09-14T06:32:16;15.66;87.68
68648;SHT31;55632;51.962;16.116;2022-09-14T06:37:17;15.79;87.30
68648;SHT31;55632;51.962;16.116;2022-09-14T06:42:17;15.87;86.84
68648;SHT31;55632;51.962;16.116;2022-09-14T06:47:21;15.98;86.46
68648;SHT31;55632;51.962;16.116;2022-09-14T06:52:23;16.10;85.55
68648;SHT31;55632;51.962;16.116;2022-09-14T06:57:23;16.18;85.07
68648;SHT31;55632;51.962;16.116;2022-09-14T07:02:24;16.30;84.51
68648;SHT31;55632;51.962;16.116;2022-09-14T07:07:25;16.41;84.03
68648;SHT31;55632;51.962;16.116;2022-09-14T07:12:29;16.53;83.38
68648;SHT31;55632;51.962;16.116;2022-09-14T07:17:32;16.64;83.05
68648;SHT31;55632;51.962;16.116;2022-09-14T07:22:35;16.76;82.25
68648;SHT31;55632;51.962;16.116;2022-09-14T07:27:36;16.85;81.68
68648;SHT31;55632;51.962;16.116;2022-09-14T07:32:38;16.92;80.98
68648;SHT31;55632;51.962;16.116;2022-09-14T07:37:39;17.03;80.32
68648;SHT31;55632;51.962;16.116;2022-09-14T07:42:43;17.14;79.62
68648;SHT31;55632;51.962;16.116;2022-09-14T07:47:49;17.19;79.03
68648;SHT31;55632;51.962;16.116;2022-09-14T07:52:52;17.25;78.79
68648;SHT31;55632;51.962;16.116;2022-09-14T07:57:54;17.40;77.97
68648;SHT31;55632;51.962;16.116;2022-09-14T08:02:55;17.50;77.59
68648;SHT31;55632;51.962;16.116;2022-09-14T08:07:57;17.60;77.10
68648;SHT31;55632;51.962;16.116;2022-09-14T08:12:58;17.66;76.89
68648;SHT31;55632;51.962;16.116;2022-09-14T08:17:58;17.81;76.72
68648;SHT31;55632;51.962;16.116;2022-09-14T08:22:59;17.98;76.62
68648;SHT31;55632;51.962;16.116;2022-09-14T08:28:03;18.16;75.63
68648;SHT31;55632;51.962;16.116;2022-09-14T08:33:05;18.29;74.75
68648;SHT31;55632;51.962;16.116;2022-09-14T08:38:05;18.33;74.20
68648;SHT31;55632;51.962;16.116;2022-09-14T08:43:09;18.39;73.68
68648;SHT31;55632;51.962;16.116;2022-09-14T08:48:22;18.54;73.40
68648;SHT31;55632;51.962;16.116;2022-09-14T08:53:27;18.74;73.03
68648;SHT31;55632;51.962;16.116;2022-09-14T09:09:47;18.88;69.74
68648;SHT31;55632;51.962;16.116;2022-09-14T09:14:52;18.84;69.25
68648;SHT31;55632;51.962;16.116;2022-09-14T09:20:02;18.88;68.42
68648;SHT31;55632;51.962;16.116;2022-09-14T09:25:13;18.97;68.41
68648;SHT31;55632;51.962;16.116;2022-09-14T09:30:15;19.11;67.86
68648;SHT31;55632;51.962;16.116;2022-09-14T09:35:21;19.26;66.72
68648;SHT31;55632;51.962;16.116;2022-09-14T09:40:36;19.39;65.34
68648;SHT31;55632;51.962;16.116;2022-09-14T09:46:01;19.50;65.22
68648;SHT31;55632;51.962;16.116;2022-09-14T09:51:04;19.68;64.57
68648;SHT31;55632;51.962;16.116;2022-09-14T09:56:06;19.86;64.20
68648;SHT31;55632;51.962;16.116;2022-09-14T10:01:20;19.98;62.21
68648;SHT31;55632;51.962;16.116;2022-09-14T10:06:22;20.01;62.29
68648;SHT31;55632;51.962;16.116;2022-09-14T10:11:33;20.04;61.99
68648;SHT31;55632;51.962;16.116;2022-09-14T10:16:38;20.06;61.12
68648;SHT31;55632;51.962;16.116;2022-09-14T10:22:04;20.11;61.18
68648;SHT31;55632;51.962;16.116;2022-09-14T10:27:31;20.25;61.21
68648;SHT31;55632;51.962;16.116;2022-09-14T10:32:32;20.33;60.87
68648;SHT31;55632;51.962;16.116;2022-09-14T10:37:48;20.47;60.91
68648;SHT31;55632;51.962;16.116;2022-09-14T10:48:24;20.84;60.16
68648;SHT31;55632;51.962;16.116;2022-09-14T10:59:20;21.02;58.89
68648;SHT31;55632;51.962;16.116;2022-09-14T11:25:38;21.16;58.88
68648;SHT31;55632;51.962;16.116;2022-09-14T11:30:50;21.18;58.96
68648;SHT31;55632;51.962;16.116;2022-09-14T11:36:00;21.34;58.61
68648;SHT31;55632;51.962;16.116;2022-09-14T11:41:23;21.36;58.62
68648;SHT31;55632;51.962;16.116;2022-09-14T11:46:33;21.44;58.22
68648;SHT31;55632;51.962;16.116;2022-09-14T11:52:05;21.49;57.92
68648;SHT31;55632;51.962;16.116;2022-09-14T11:57:15;21.64;57.78
68648;SHT31;55632;51.962;16.116;2022-09-14T12:13:20;21.68;57.19
68648;SHT31;55632;51.962;16.116;2022-09-14T12:18:23;21.62;57.87
68648;SHT31;55632;51.962;16.116;2022-09-14T12:28:38;21.61;57.97
68648;SHT31;55632;51.962;16.116;2022-09-14T12:33:43;21.58;57.75
68648;SHT31;55632;51.962;16.116;2022-09-14T12:54:13;21.51;57.73
68648;SHT31;55632;51.962;16.116;2022-09-14T13:04:36;21.50;58.56
68648;SHT31;55632;51.962;16.116;2022-09-14T13:09:45;21.55;58.58
68648;SHT31;55632;51.962;16.116;2022-09-14T13:15:01;21.53;58.51
68648;SHT31;55632;51.962;16.116;2022-09-14T13:20:03;21.50;58.98
68648;SHT31;55632;51.962;16.116;2022-09-14T13:25:05;21.50;59.36
68648;SHT31;55632;51.962;16.116;2022-09-14T13:30:19;21.47;59.29
68648;SHT31;55632;51.962;16.116;2022-09-14T13:35:31;21.40;59.31
68648;SHT31;55632;51.962;16.116;2022-09-14T13:40:32;21.34;59.38
68648;SHT31;55632;51.962;16.116;2022-09-14T13:45:33;21.27;59.68
68648;SHT31;55632;51.962;16.116;2022-09-14T13:50:36;21.27;59.84
68648;SHT31;55632;51.962;16.116;2022-09-14T14:01:00;21.26;59.86
68648;SHT31;55632;51.962;16.116;2022-09-14T14:06:26;21.29;59.68
68648;SHT31;55632;51.962;16.116;2022-09-14T14:11:38;21.30;59.81
68648;SHT31;55632;51.962;16.116;2022-09-14T14:16:41;21.32;59.71
68648;SHT31;55632;51.962;16.116;2022-09-14T14:21:42;21.37;59.94
68648;SHT31;55632;51.962;16.116;2022-09-14T14:26:47;21.41;59.81
68648;SHT31;55632;51.962;16.116;2022-09-14T14:31:49;21.46;59.77
68648;SHT31;55632;51.962;16.116;2022-09-14T14:36:50;21.46;59.81
68648;SHT31;55632;51.962;16.116;2022-09-14T14:41:51;21.40;59.79
68648;SHT31;55632;51.962;16.116;2022-09-14T14:46:53;21.32;59.97
68648;SHT31;55632;51.962;16.116;2022-09-14T14:51:57;21.23;60.05
68648;SHT31;55632;51.962;16.116;2022-09-14T14:56:58;21.09;60.61
68648;SHT31;55632;51.962;16.116;2022-09-14T15:01:59;21.06;60.71
68648;SHT31;55632;51.962;16.116;2022-09-14T15:06:59;21.03;61.07
68648;SHT31;55632;51.962;16.116;2022-09-14T15:12:03;20.99;61.38
68648;SHT31;55632;51.962;16.116;2022-09-14T15:17:04;20.98;61.69
68648;SHT31;55632;51.962;16.116;2022-09-14T15:22:05;21.02;61.56
68648;SHT31;55632;51.962;16.116;2022-09-14T15:27:06;21.00;61.59
68648;SHT31;55632;51.962;16.116;2022-09-14T15:32:07;20.91;61.70
68648;SHT31;55632;51.962;16.116;2022-09-14T15:37:08;20.75;61.78
68648;SHT31;55632;51.962;16.116;2022-09-14T15:42:09;20.65;62.00
68648;SHT31;55632;51.962;16.116;2022-09-14T15:47:11;20.58;62.36
68648;SHT31;55632;51.962;16.116;2022-09-14T15:52:14;20.47;62.68
68648;SHT31;55632;51.962;16.116;2022-09-14T15:57:15;20.41;62.95
68648;SHT31;55632;51.962;16.116;2022-09-14T16:02:16;20.32;63.09
68648;SHT31;55632;51.962;16.116;2022-09-14T16:07:19;20.18;63.29
68648;SHT31;55632;51.962;16.116;2022-09-14T16:12:20;20.09;63.91
68648;SHT31;55632;51.962;16.116;2022-09-14T16:17:21;20.05;64.36
68648;SHT31;55632;51.962;16.116;2022-09-14T16:22:22;19.94;65.03
68648;SHT31;55632;51.962;16.116;2022-09-14T16:27:24;19.91;65.26
68648;SHT31;55632;51.962;16.116;2022-09-14T16:32:26;19.81;65.67
68648;SHT31;55632;51.962;16.116;2022-09-14T16:37:27;19.70;65.83
68648;SHT31;55632;51.962;16.116;2022-09-14T16:42:28;19.58;66.13
68648;SHT31;55632;51.962;16.116;2022-09-14T16:47:31;19.49;66.45
68648;SHT31;55632;51.962;16.116;2022-09-14T16:52:33;19.42;66.73
68648;SHT31;55632;51.962;16.116;2022-09-14T16:57:34;19.34;67.02
68648;SHT31;55632;51.962;16.116;2022-09-14T17:02:35;19.25;67.26
68648;SHT31;55632;51.962;16.116;2022-09-14T17:07:40;19.20;67.48
68648;SHT31;55632;51.962;16.116;2022-09-14T17:12:48;19.09;67.70
68648;SHT31;55632;51.962;16.116;2022-09-14T17:17:50;19.02;68.05
68648;SHT31;55632;51.962;16.116;2022-09-14T17:22:51;18.97;68.46
68648;SHT31;55632;51.962;16.116;2022-09-14T17:27:52;18.85;68.81
68648;SHT31;55632;51.962;16.116;2022-09-14T17:32:53;18.80;68.87
68648;SHT31;55632;51.962;16.116;2022-09-14T17:37:54;18.73;69.05
68648;SHT31;55632;51.962;16.116;2022-09-14T17:42:54;18.64;69.24
68648;SHT31;55632;51.962;16.116;2022-09-14T17:47:55;18.59;69.44
68648;SHT31;55632;51.962;16.116;2022-09-14T17:52:56;18.50;69.62
68648;SHT31;55632;51.962;16.116;2022-09-14T17:57:57;18.45;69.81
68648;SHT31;55632;51.962;16.116;2022-09-14T18:02:58;18.36;69.89
68648;SHT31;55632;51.962;16.116;2022-09-14T18:07:59;18.32;70.09
68648;SHT31;55632;51.962;16.116;2022-09-14T18:13:00;18.22;70.30
68648;SHT31;55632;51.962;16.116;2022-09-14T18:18:03;18.19;70.48
68648;SHT31;55632;51.962;16.116;2022-09-14T18:23:06;18.16;70.77
68648;SHT31;55632;51.962;16.116;2022-09-14T18:28:07;18.11;70.84
68648;SHT31;55632;51.962;16.116;2022-09-14T18:33:08;18.05;71.05
68648;SHT31;55632;51.962;16.116;2022-09-14T18:38:12;18.04;71.14
68648;SHT31;55632;51.962;16.116;2022-09-14T18:43:13;17.97;71.36
68648;SHT31;55632;51.962;16.116;2022-09-14T18:48:16;17.93;71.58
68648;SHT31;55632;51.962;16.116;2022-09-14T18:53:17;17.87;71.79
68648;SHT31;55632;51.962;16.116;2022-09-14T18:58:17;17.80;72.06
68648;SHT31;55632;51.962;16.116;2022-09-14T19:03:19;17.78;72.40
68648;SHT31;55632;51.962;16.116;2022-09-14T19:08:20;17.71;72.66
68648;SHT31;55632;51.962;16.116;2022-09-14T19:13:22;17.67;72.77
68648;SHT31;55632;51.962;16.116;2022-09-14T19:18:23;17.62;72.98
68648;SHT31;55632;51.962;16.116;2022-09-14T19:23:23;17.53;73.21
68648;SHT31;55632;51.962;16.116;2022-09-14T19:28:24;17.47;73.44
68648;SHT31;55632;51.962;16.116;2022-09-14T19:33:25;17.46;73.56
68648;SHT31;55632;51.962;16.116;2022-09-14T19:38:27;17.45;73.62
68648;SHT31;55632;51.962;16.116;2022-09-14T19:43:30;17.42;73.88
68648;SHT31;55632;51.962;16.116;2022-09-14T19:48:32;17.38;73.90
68648;SHT31;55632;51.962;16.116;2022-09-14T19:53:34;17.33;74.13
68648;SHT31;55632;51.962;16.116;2022-09-14T19:58:36;17.32;74.37
68648;SHT31;55632;51.962;16.116;2022-09-14T20:03:38;17.29;74.47
68648;SHT31;55632;51.962;16.116;2022-09-14T20:08:40;17.25;74.59
68648;SHT31;55632;51.962;16.116;2022-09-14T20:13:41;17.21;74.77
68648;SHT31;55632;51.962;16.116;2022-09-14T20:18:44;17.22;74.88
68648;SHT31;55632;51.962;16.116;2022-09-14T20:23:45;17.16;75.05
68648;SHT31;55632;51.962;16.116;2022-09-14T20:28:46;17.14;75.06
68648;SHT31;55632;51.962;16.116;2022-09-14T20:33:48;17.10;75.03
68648;SHT31;55632;51.962;16.116;2022-09-14T20:38:51;17.04;75.03
68648;SHT31;55632;51.962;16.116;2022-09-14T20:43:53;17.04;75.21
68648;SHT31;55632;51.962;16.116;2022-09-14T20:48:54;17.00;75.36
68648;SHT31;55632;51.962;16.116;2022-09-14T20:53:55;16.97;75.40
68648;SHT31;55632;51.962;16.116;2022-09-14T20:58:58;16.95;75.52
68648;SHT31;55632;51.962;16.116;2022-09-14T21:04:08;16.92;75.60
68648;SHT31;55632;51.962;16.116;2022-09-14T21:09:10;16.91;75.78
68648;SHT31;55632;51.962;16.116;2022-09-14T21:14:17;16.88;76.10
68648;SHT31;55632;51.962;16.116;2022-09-14T21:19:20;16.83;76.21
68648;SHT31;55632;51.962;16.116;2022-09-14T21:24:23;16.80;76.52
68648;SHT31;55632;51.962;16.116;2022-09-14T21:29:25;16.79;76.83
68648;SHT31;55632;51.962;16.116;2022-09-14T21:34:26;16.73;77.14
68648;SHT31;55632;51.962;16.116;2022-09-14T21:39:28;16.69;77.58
68648;SHT31;55632;51.962;16.116;2022-09-14T21:44:30;16.63;77.99
68648;SHT31;55632;51.962;16.116;2022-09-14T21:49:32;16.62;78.33
68648;SHT31;55632;51.962;16.116;2022-09-14T21:54:34;16.59;78.68
68648;SHT31;55632;51.962;16.116;2022-09-14T21:59:35;16.53;79.08
68648;SHT31;55632;51.962;16.116;2022-09-14T22:04:38;16.49;79.42
68648;SHT31;55632;51.962;16.116;2022-09-14T22:09:39;16.45;79.68
68648;SHT31;55632;51.962;16.116;2022-09-14T22:14:40;16.44;79.93
68648;SHT31;55632;51.962;16.116;2022-09-14T22:19:41;16.38;80.11
68648;SHT31;55632;51.962;16.116;2022-09-14T22:24:42;16.29;80.42
68648;SHT31;55632;51.962;16.116;2022-09-14T22:29:43;16.24;80.72
68648;SHT31;55632;51.962;16.116;2022-09-14T22:34:44;16.21;80.99
68648;SHT31;55632;51.962;16.116;2022-09-14T22:39:45;16.22;81.27
68648;SHT31;55632;51.962;16.116;2022-09-14T22:44:46;16.22;81.41
68648;SHT31;55632;51.962;16.116;2022-09-14T22:49:47;16.22;81.58
68648;SHT31;55632;51.962;16.116;2022-09-14T22:54:48;16.17;81.72
68648;SHT31;55632;51.962;16.116;2022-09-14T22:59:49;16.15;81.85
68648;SHT31;55632;51.962;16.116;2022-09-14T23:04:50;16.10;81.99
68648;SHT31;55632;51.962;16.116;2022-09-14T23:09:51;16.08;82.08
68648;SHT31;55632;51.962;16.116;2022-09-14T23:14:51;16.05;82.40
68648;SHT31;55632;51.962;16.116;2022-09-14T23:19:52;16.01;82.62
68648;SHT31;55632;51.962;16.116;2022-09-14T23:24:53;15.97;82.89
68648;SHT31;55632;51.962;16.116;2022-09-14T23:29:54;15.93;82.96
68648;SHT31;55632;51.962;16.116;2022-09-14T23:34:55;15.91;83.01
68648;SHT31;55632;51.962;16.116;2022-09-14T23:39:55;15.87;83.04
68648;SHT31;55632;51.962;16.116;2022-09-14T23:44:56;15.84;83.16
68648;SHT31;55632;51.962;16.116;2022-09-14T23:49:57;15.79;83.32
68648;SHT31;55632;51.962;16.116;2022-09-14T23:54:57;15.71;83.40
